createdAt,value
2022-10-17T00:02:16.039Z,100.00
2022-10-17T00:04:43.747Z,100.00
2022-10-17T00:07:11.439Z,100.00
2022-10-17T00:09:39.165Z,100.00
2022-10-17T00:12:07.125Z,100.00
2022-10-17T00:14:34.857Z,100.00
2022-10-17T00:17:04.426Z,100.00
2022-10-17T00:19:32.140Z,100.00
2022-10-17T00:21:59.817Z,100.00
2022-10-17T00:24:27.490Z,100.00
2022-10-17T00:26:55.157Z,100.00
2022-10-17T00:29:22.860Z,100.00
2022-10-17T00:31:50.637Z,100.00
2022-10-17T00:34:19.704Z,100.00
2022-10-17T00:36:47.352Z,100.00
2022-10-17T00:39:15.105Z,100.00
2022-10-17T00:41:42.798Z,100.00
2022-10-17T00:44:42.858Z,100.00
2022-10-17T00:47:13.909Z,100.00
2022-10-17T00:49:43.306Z,100.00
2022-10-17T00:52:14.754Z,100.00
2022-10-17T00:54:46.940Z,100.00
2022-10-17T00:57:15.958Z,100.00
2022-10-17T00:59:48.468Z,100.00
2022-10-17T01:02:18.756Z,100.00
2022-10-17T01:04:51.090Z,100.00
2022-10-17T01:07:19.012Z,100.00
2022-10-17T01:09:48.071Z,100.00
2022-10-17T01:12:21.670Z,100.00
2022-10-17T01:15:03.834Z,100.00
2022-10-17T01:17:42.009Z,100.00
2022-10-17T01:20:39.271Z,100.00
2022-10-17T01:23:31.683Z,100.00
2022-10-17T01:26:12.762Z,100.00
2022-10-17T01:29:00.817Z,100.00
2022-10-17T01:31:37.951Z,100.00
2022-10-17T01:34:13.355Z,100.00
2022-10-17T01:36:49.239Z,100.00
2022-10-17T01:39:28.049Z,100.00
2022-10-17T01:42:03.078Z,100.00
2022-10-17T01:44:38.067Z,100.00
2022-10-17T01:47:11.097Z,100.00
2022-10-17T01:49:41.934Z,100.00
2022-10-17T01:52:13.109Z,100.00
2022-10-17T01:54:46.534Z,100.00
2022-10-17T01:57:31.269Z,100.00
2022-10-17T01:59:59.324Z,100.00
2022-10-17T02:02:29.388Z,100.00
2022-10-17T02:04:58.339Z,100.00
2022-10-17T02:07:26.423Z,100.00
2022-10-17T02:09:54.287Z,100.00
2022-10-17T02:12:48.320Z,100.00
2022-10-17T02:15:34.700Z,100.00
2022-10-17T02:18:12.676Z,100.00
2022-10-17T02:20:50.531Z,100.00
2022-10-17T02:23:25.074Z,100.00
2022-10-17T02:26:03.069Z,100.00
2022-10-17T02:28:35.783Z,100.00
2022-10-17T02:31:05.310Z,100.00
2022-10-17T02:33:39.755Z,100.00
2022-10-17T02:36:12.670Z,100.00
2022-10-17T02:38:43.232Z,100.00
2022-10-17T02:41:14.638Z,100.00
2022-10-17T02:43:45.232Z,100.00
2022-10-17T02:46:20.714Z,100.00
2022-10-17T02:48:53.154Z,100.00
2022-10-17T02:51:29.231Z,100.00
2022-10-17T02:54:06.098Z,100.00
2022-10-17T02:56:42.174Z,100.00
2022-10-17T02:59:14.179Z,100.00
2022-10-17T03:01:42.782Z,100.00
2022-10-17T03:04:13.732Z,100.00
2022-10-17T03:06:42.297Z,100.00
2022-10-17T03:09:09.996Z,100.00
2022-10-17T03:11:37.702Z,100.00
2022-10-17T03:14:05.766Z,100.00
2022-10-17T03:16:33.451Z,100.00
2022-10-17T03:19:01.240Z,100.00
2022-10-17T03:21:30.369Z,100.00
2022-10-17T03:23:58.205Z,100.00
2022-10-17T03:26:25.964Z,100.00
2022-10-17T03:28:54.609Z,100.00
2022-10-17T03:31:22.910Z,100.00
2022-10-17T03:33:50.558Z,100.00
2022-10-17T03:36:20.174Z,100.00
2022-10-17T03:38:49.477Z,100.00
2022-10-17T03:41:17.159Z,100.00
2022-10-17T03:43:44.849Z,100.00
2022-10-17T03:46:12.620Z,100.00
2022-10-17T03:48:40.411Z,100.00
2022-10-17T03:51:10.411Z,100.00
2022-10-17T03:53:38.267Z,100.00
2022-10-17T03:56:16.692Z,100.00
2022-10-17T03:58:44.752Z,100.00
2022-10-17T04:01:14.560Z,100.00
2022-10-17T04:03:42.684Z,100.00
2022-10-17T04:06:13.330Z,100.00
2022-10-17T04:08:42.696Z,100.00
2022-10-17T04:11:14.555Z,100.00
2022-10-17T04:13:43.620Z,100.00
2022-10-17T04:16:19.235Z,100.00
2022-10-17T04:18:46.902Z,100.00
2022-10-17T04:21:14.848Z,100.00
2022-10-17T04:23:42.579Z,100.00
2022-10-17T04:26:10.262Z,100.00
2022-10-17T04:31:14.349Z,100.00
2022-10-17T04:33:42.530Z,100.00
2022-10-17T04:36:14.136Z,100.00
2022-10-17T04:38:42.157Z,100.00
2022-10-17T04:41:14.003Z,100.00
2022-10-17T04:44:56.865Z,100.00
2022-10-17T04:47:26.166Z,100.00
2022-10-17T04:49:53.967Z,100.00
2022-10-17T04:52:21.770Z,100.00
2022-10-17T04:54:49.739Z,100.00
2022-10-17T04:57:17.849Z,100.00
2022-10-17T04:59:45.668Z,100.00
2022-10-17T05:02:13.646Z,100.00
2022-10-17T05:04:42.846Z,100.00
2022-10-17T05:07:10.674Z,100.00
2022-10-17T05:09:38.559Z,100.00
2022-10-17T05:12:09.500Z,100.00
2022-10-17T05:14:38.335Z,100.00
2022-10-17T05:17:06.281Z,100.00
2022-10-17T05:19:34.227Z,100.00
2022-10-17T05:22:03.633Z,100.00
2022-10-17T05:24:31.524Z,100.00
2022-10-17T05:26:59.467Z,100.00
2022-10-17T05:29:27.423Z,100.00
2022-10-17T05:31:55.394Z,100.00
2022-10-17T05:34:23.390Z,100.00
2022-10-17T05:36:51.302Z,100.00
2022-10-17T05:39:20.649Z,100.00
2022-10-17T05:41:48.492Z,100.00
2022-10-17T05:44:16.792Z,100.00
2022-10-17T05:46:45.171Z,100.00
2022-10-17T05:49:19.556Z,100.00
2022-10-17T05:51:59.742Z,100.00
2022-10-17T05:54:29.061Z,100.00
2022-10-17T05:56:57.446Z,100.00
2022-10-17T05:59:26.852Z,100.00
2022-10-17T06:01:55.680Z,100.00
2022-10-17T06:04:23.620Z,100.00
2022-10-17T06:06:51.511Z,100.00
2022-10-17T06:09:19.374Z,100.00
2022-10-17T06:11:48.734Z,100.00
2022-10-17T06:14:16.710Z,100.00
2022-10-17T06:16:44.710Z,100.00
2022-10-17T06:19:12.680Z,100.00
2022-10-17T06:21:40.638Z,100.00
2022-10-17T06:24:08.530Z,100.00
2022-10-17T06:26:36.481Z,100.00
2022-10-17T06:29:05.885Z,100.00
2022-10-17T06:31:33.899Z,100.00
2022-10-17T06:34:01.904Z,100.00
2022-10-17T06:36:29.847Z,100.00
2022-10-17T06:38:57.824Z,100.00
2022-10-17T06:41:26.368Z,100.00
2022-10-17T06:43:54.456Z,100.00
2022-10-17T06:46:26.785Z,100.00
2022-10-17T06:48:54.766Z,100.00
2022-10-17T06:51:22.806Z,100.00
2022-10-17T06:53:50.924Z,100.00
2022-10-17T06:56:19.510Z,100.00
2022-10-17T06:58:49.527Z,100.00
2022-10-17T07:01:17.546Z,100.00
2022-10-17T07:03:49.553Z,100.00
2022-10-17T07:06:18.248Z,100.00
2022-10-17T07:08:47.052Z,100.00
2022-10-17T07:11:17.729Z,100.00
2022-10-17T07:13:46.065Z,100.00
2022-10-17T07:16:14.923Z,100.00
2022-10-17T07:18:43.461Z,100.00
2022-10-17T07:21:12.927Z,100.00
2022-10-17T07:23:41.526Z,100.00
2022-10-17T07:26:18.899Z,100.00
2022-10-17T07:28:49.502Z,97.03
2022-10-17T07:31:19.077Z,93.66
2022-10-17T07:33:47.558Z,92.67
2022-10-17T07:36:17.681Z,90.04
2022-10-17T07:38:46.057Z,89.78
2022-10-17T07:41:19.209Z,90.06
2022-10-17T07:43:49.699Z,91.18
2022-10-17T07:46:17.744Z,90.69
2022-10-17T07:48:46.162Z,90.59
2022-10-17T07:51:14.271Z,89.76
2022-10-17T07:53:47.938Z,88.72
2022-10-17T07:56:17.024Z,88.70
2022-10-17T07:58:44.872Z,88.41
2022-10-17T08:01:16.226Z,89.08
2022-10-17T08:03:45.761Z,87.87
2022-10-17T08:06:14.305Z,88.46
2022-10-17T08:08:44.270Z,88.21
2022-10-17T08:11:14.282Z,87.49
2022-10-17T08:13:42.856Z,87.38
2022-10-17T08:16:13.589Z,86.22
2022-10-17T08:18:44.414Z,86.45
2022-10-17T08:21:14.173Z,86.03
2022-10-17T08:23:43.571Z,85.64
2022-10-17T08:26:13.619Z,85.29
2022-10-17T08:28:42.475Z,85.33
2022-10-17T08:31:12.058Z,84.61
2022-10-17T08:33:40.095Z,84.77
2022-10-17T08:36:09.148Z,84.26
2022-10-17T08:38:43.071Z,83.18
2022-10-17T08:41:21.750Z,83.23
2022-10-17T08:44:12.337Z,83.08
2022-10-17T08:46:43.918Z,82.91
2022-10-17T08:49:17.646Z,83.87
2022-10-17T08:51:51.512Z,83.72
2022-10-17T08:54:23.611Z,83.84
2022-10-17T08:56:56.706Z,83.60
2022-10-17T08:59:28.849Z,82.71
2022-10-17T09:02:04.335Z,83.35
2022-10-17T09:04:54.125Z,82.56
2022-10-17T09:07:28.746Z,82.46
2022-10-17T09:10:08.135Z,81.56
2022-10-17T09:12:46.342Z,81.88
2022-10-17T09:15:38.695Z,81.91
2022-10-17T09:18:13.352Z,82.02
2022-10-17T09:20:46.615Z,82.78
2022-10-17T09:23:19.220Z,82.91
2022-10-17T09:25:48.500Z,83.17
2022-10-17T09:28:22.840Z,82.29
2022-10-17T09:30:57.211Z,80.46
2022-10-17T09:33:42.296Z,79.81
2022-10-17T09:36:20.111Z,79.65
2022-10-17T09:38:50.685Z,80.04
2022-10-17T09:44:23.613Z,77.91
2022-10-17T09:47:19.446Z,76.99
2022-10-17T09:49:49.141Z,74.96
2022-10-17T09:52:19.619Z,74.13
2022-10-17T09:54:49.810Z,73.43
2022-10-17T09:57:19.363Z,73.80
2022-10-17T09:59:57.365Z,73.34
2022-10-17T10:02:27.046Z,72.45
2022-10-17T10:05:06.872Z,72.55
2022-10-17T10:07:38.058Z,72.55
2022-10-17T10:10:08.940Z,72.09
2022-10-17T10:12:40.391Z,71.58
2022-10-17T10:15:34.538Z,72.59
2022-10-17T10:18:02.901Z,70.64
2022-10-17T10:20:35.756Z,70.07
2022-10-17T10:23:12.781Z,68.74
2022-10-17T10:25:53.706Z,68.83
2022-10-17T10:28:23.844Z,67.68
2022-10-17T10:30:55.529Z,67.07
2022-10-17T10:33:26.495Z,67.16
2022-10-17T10:36:01.193Z,66.68
2022-10-17T10:38:29.494Z,66.00
2022-10-17T10:41:02.669Z,66.17
2022-10-17T10:43:36.507Z,65.52
2022-10-17T10:46:17.261Z,64.85
2022-10-17T10:48:52.306Z,64.69
2022-10-17T10:51:24.982Z,64.64
2022-10-17T10:53:58.059Z,64.19
2022-10-17T10:56:31.027Z,62.49
2022-10-17T10:59:04.059Z,63.62
2022-10-17T11:01:40.454Z,62.64
2022-10-17T11:04:29.321Z,62.11
2022-10-17T11:07:07.265Z,62.73
2022-10-17T11:09:47.374Z,61.87
2022-10-17T11:12:22.107Z,61.64
2022-10-17T11:14:57.314Z,61.87
2022-10-17T11:17:33.859Z,60.03
2022-10-17T11:20:15.126Z,58.52
2022-10-17T11:22:47.614Z,59.33
2022-10-17T11:25:25.803Z,59.05
2022-10-17T11:27:53.638Z,59.13
2022-10-17T11:30:24.503Z,58.15
2022-10-17T11:32:58.181Z,56.35
2022-10-17T11:35:29.153Z,55.67
2022-10-17T11:38:06.668Z,55.74
2022-10-17T11:40:37.227Z,55.40
2022-10-17T11:43:14.631Z,55.86
2022-10-17T11:45:46.800Z,54.96
2022-10-17T11:48:23.997Z,55.52
2022-10-17T11:53:53.965Z,53.31
2022-10-17T11:56:28.063Z,54.12
2022-10-17T11:59:03.812Z,54.56
2022-10-17T12:01:40.009Z,54.35
2022-10-17T12:04:41.985Z,53.83
2022-10-17T12:07:16.909Z,52.88
2022-10-17T12:09:47.416Z,52.78
2022-10-17T12:12:27.032Z,51.76
2022-10-17T12:14:55.480Z,52.73
2022-10-17T12:17:34.792Z,52.63
2022-10-17T12:20:28.491Z,52.42
2022-10-17T12:22:58.854Z,51.27
2022-10-17T12:25:30.146Z,50.87
2022-10-17T12:28:15.908Z,49.74
2022-10-17T12:30:56.877Z,48.36
2022-10-17T12:33:31.408Z,48.29
2022-10-17T12:36:47.270Z,47.57
2022-10-17T12:39:52.444Z,47.07
2022-10-17T12:42:52.637Z,46.54
2022-10-17T12:45:54.406Z,45.35
2022-10-17T12:49:04.806Z,46.57
2022-10-17T12:52:11.157Z,45.99
2022-10-17T12:54:48.101Z,45.79
2022-10-17T12:57:34.502Z,45.15
2022-10-17T13:00:06.206Z,44.44
2022-10-17T13:02:34.941Z,45.26
2022-10-17T13:05:09.409Z,44.77
2022-10-17T13:07:38.207Z,46.75
2022-10-17T13:10:11.618Z,46.30
2022-10-17T13:12:42.934Z,46.02
2022-10-17T13:15:19.011Z,47.10
2022-10-17T13:17:47.497Z,46.70
2022-10-17T13:20:25.565Z,46.85
2022-10-17T13:22:58.230Z,47.10
2022-10-17T13:25:28.610Z,47.35
2022-10-17T13:28:14.350Z,47.52
2022-10-17T13:30:49.587Z,47.51
2022-10-17T13:33:30.159Z,48.08
2022-10-17T13:36:00.387Z,47.64
2022-10-17T13:38:32.302Z,46.03
2022-10-17T13:41:30.036Z,47.00
2022-10-17T13:43:52.278Z,47.99
2022-10-17T13:46:37.384Z,47.28
2022-10-17T13:49:14.019Z,47.15
2022-10-17T13:51:45.883Z,47.35
2022-10-17T13:54:27.938Z,48.05
2022-10-17T13:56:58.898Z,47.94
2022-10-17T13:59:31.920Z,47.47
2022-10-17T14:02:01.677Z,47.42
2022-10-17T14:04:39.983Z,47.19
2022-10-17T14:07:22.852Z,48.21
2022-10-17T14:09:51.095Z,47.98
2022-10-17T14:12:22.333Z,49.58
2022-10-17T14:15:10.789Z,49.99
2022-10-17T14:17:40.645Z,50.42
2022-10-17T14:20:57.440Z,51.13
2022-10-17T14:23:21.580Z,51.05
2022-10-17T14:25:47.621Z,51.86
2022-10-17T14:28:18.518Z,52.67
2022-10-17T14:30:57.122Z,54.15
2022-10-17T14:33:28.896Z,54.53
2022-10-17T14:35:58.900Z,55.35
2022-10-17T14:38:27.485Z,56.86
2022-10-17T14:41:23.287Z,57.54
2022-10-17T14:43:54.609Z,57.73
2022-10-17T14:46:22.676Z,59.30
2022-10-17T14:48:55.797Z,59.42
2022-10-17T14:51:23.776Z,60.81
2022-10-17T14:54:06.168Z,62.06
2022-10-17T14:56:41.429Z,62.63
2022-10-17T14:59:15.638Z,62.65
2022-10-17T15:01:49.550Z,63.14
2022-10-17T15:04:17.726Z,63.13
2022-10-17T15:06:46.005Z,63.53
2022-10-17T15:09:14.007Z,62.88
2022-10-17T15:11:41.870Z,63.17
2022-10-17T15:14:11.180Z,62.71
2022-10-17T15:16:39.512Z,62.99
2022-10-17T15:19:07.494Z,64.10
2022-10-17T15:21:43.257Z,65.27
2022-10-17T15:24:15.101Z,65.53
2022-10-17T15:26:43.117Z,66.43
2022-10-17T15:29:16.321Z,66.43
2022-10-17T15:31:44.287Z,66.65
2022-10-17T15:34:12.313Z,67.56
2022-10-17T15:36:42.258Z,66.68
2022-10-17T15:39:11.437Z,67.93
2022-10-17T15:41:39.384Z,69.49
2022-10-17T15:44:07.432Z,69.23
2022-10-17T15:46:37.004Z,69.27
2022-10-17T15:49:07.454Z,70.84
2022-10-17T15:51:35.363Z,71.15
2022-10-17T15:54:03.344Z,72.66
2022-10-17T15:56:35.865Z,73.20
2022-10-17T15:59:05.531Z,73.70
2022-10-17T16:01:35.965Z,74.56
2022-10-17T16:04:04.211Z,75.35
2022-10-17T16:06:31.994Z,75.03
2022-10-17T16:08:59.720Z,75.79
2022-10-17T16:11:31.740Z,75.39
2022-10-17T16:14:01.268Z,76.11
2022-10-17T16:16:29.202Z,77.22
2022-10-17T16:18:58.470Z,77.46
2022-10-17T16:21:28.745Z,77.96
2022-10-17T16:23:56.860Z,78.32
2022-10-17T16:26:24.727Z,78.37
2022-10-17T16:28:52.556Z,78.88
2022-10-17T16:31:23.172Z,79.54
2022-10-17T16:33:53.440Z,80.40
2022-10-17T16:36:22.736Z,81.41
2022-10-17T16:38:51.348Z,82.45
2022-10-17T16:41:23.563Z,81.74
2022-10-17T16:43:53.157Z,82.40
2022-10-17T16:46:22.024Z,83.55
2022-10-17T16:48:50.050Z,85.77
2022-10-17T16:51:19.999Z,86.49
2022-10-17T16:53:50.687Z,86.99
2022-10-17T16:56:20.994Z,87.47
2022-10-17T16:58:49.551Z,87.75
2022-10-17T17:01:19.289Z,87.77
2022-10-17T17:03:48.970Z,87.72
2022-10-17T17:06:20.623Z,88.69
2022-10-17T17:08:49.734Z,88.58
2022-10-17T17:11:19.207Z,88.97
2022-10-17T17:13:46.940Z,88.69
2022-10-17T17:16:16.891Z,89.50
2022-10-17T17:18:46.038Z,89.38
2022-10-17T17:21:14.538Z,90.12
2022-10-17T17:23:44.095Z,90.83
2022-10-17T17:26:15.265Z,90.79
2022-10-17T17:28:43.800Z,91.11
2022-10-17T17:31:13.723Z,91.25
2022-10-17T17:33:42.907Z,91.52
2022-10-17T17:36:14.886Z,91.19
2022-10-17T17:38:42.639Z,91.48
2022-10-17T17:41:14.431Z,91.82
2022-10-17T17:43:42.474Z,92.33
2022-10-17T17:46:10.982Z,92.89
2022-10-17T17:48:39.355Z,92.80
2022-10-17T17:51:08.745Z,93.68
2022-10-17T17:53:37.083Z,94.55
2022-10-17T17:56:06.082Z,94.56
2022-10-17T17:58:36.083Z,94.67
2022-10-17T18:01:14.331Z,95.18
2022-10-17T18:03:42.923Z,95.54
2022-10-17T18:06:10.902Z,95.62
2022-10-17T18:08:38.773Z,95.55
2022-10-17T18:11:07.295Z,96.04
2022-10-17T18:13:36.414Z,96.41
2022-10-17T18:16:12.666Z,96.13
2022-10-17T18:18:41.602Z,96.60
2022-10-17T18:21:10.080Z,97.18
2022-10-17T18:23:38.984Z,97.25
2022-10-17T18:26:07.517Z,97.60
2022-10-17T18:28:38.415Z,97.93
2022-10-17T18:31:07.648Z,97.86
2022-10-17T18:33:36.065Z,98.10
2022-10-17T18:36:07.081Z,98.91
2022-10-17T18:38:35.117Z,99.29
2022-10-17T18:41:04.520Z,99.86
2022-10-17T18:43:34.192Z,99.69
2022-10-17T18:46:12.487Z,99.34
2022-10-17T18:48:45.426Z,99.75
2022-10-17T18:51:14.519Z,99.91
2022-10-17T18:53:42.875Z,100.00
2022-10-17T18:56:11.298Z,100.00
2022-10-17T18:58:40.181Z,100.00
2022-10-17T19:01:11.914Z,100.00
2022-10-17T19:03:39.773Z,100.00
2022-10-17T19:06:09.482Z,100.00
2022-10-17T19:08:38.073Z,100.00
2022-10-17T19:11:07.331Z,100.00
2022-10-17T19:13:35.599Z,100.00
2022-10-17T19:16:06.392Z,100.00
2022-10-17T19:18:35.987Z,100.00
2022-10-17T19:21:04.729Z,100.00
2022-10-17T19:23:35.442Z,100.00
2022-10-17T19:26:04.239Z,100.00
2022-10-17T19:28:32.306Z,100.00
2022-10-17T19:31:00.175Z,100.00
2022-10-17T19:35:58.836Z,100.00
2022-10-17T19:38:26.897Z,100.00
2022-10-17T19:40:54.873Z,100.00
2022-10-17T19:43:23.120Z,100.00
2022-10-17T19:45:57.711Z,100.00
2022-10-17T19:48:26.246Z,100.00
2022-10-17T19:50:54.496Z,100.00
2022-10-17T19:53:27.458Z,100.00
2022-10-17T19:55:55.159Z,100.00
2022-10-17T19:58:23.004Z,100.00
2022-10-17T20:00:52.316Z,100.00
2022-10-17T20:03:20.059Z,100.00
2022-10-17T20:05:48.081Z,100.00
2022-10-17T20:08:16.911Z,100.00
2022-10-17T20:10:46.126Z,100.00
2022-10-17T20:13:14.450Z,100.00
2022-10-17T20:15:42.366Z,100.00
2022-10-17T20:18:10.689Z,100.00
2022-10-17T20:20:38.761Z,100.00
2022-10-17T20:23:06.544Z,100.00
2022-10-17T20:25:35.204Z,100.00
2022-10-17T20:28:04.358Z,100.00
2022-10-17T20:30:32.113Z,100.00
2022-10-17T20:32:59.853Z,100.00
2022-10-17T20:35:27.666Z,100.00
2022-10-17T20:37:55.475Z,100.00
2022-10-17T20:40:34.743Z,100.00
2022-10-17T20:43:05.013Z,100.00
2022-10-17T20:45:50.352Z,100.00
2022-10-17T20:48:20.076Z,100.00
2022-10-17T20:50:47.805Z,100.00
2022-10-17T20:53:36.965Z,100.00
2022-10-17T20:56:05.934Z,100.00
2022-10-17T20:58:35.197Z,100.00
2022-10-17T21:01:07.371Z,100.00
2022-10-17T21:03:39.757Z,100.00
2022-10-17T21:06:10.831Z,100.00
2022-10-17T21:08:39.132Z,100.00
2022-10-17T21:11:11.481Z,100.00
2022-10-17T21:13:41.110Z,100.00
2022-10-17T21:16:10.906Z,100.00
2022-10-17T21:18:39.229Z,100.00
2022-10-17T21:21:12.920Z,100.00
2022-10-17T21:23:42.188Z,100.00
2022-10-17T21:26:12.293Z,100.00
2022-10-17T21:28:42.296Z,100.00
2022-10-17T21:31:13.494Z,100.00
2022-10-17T21:33:42.186Z,100.00
2022-10-17T21:36:10.971Z,100.00
2022-10-17T21:38:39.582Z,100.00
2022-10-17T21:41:09.358Z,100.00
2022-10-17T21:43:38.301Z,100.00
2022-10-17T21:46:08.876Z,100.00
2022-10-17T21:48:36.905Z,100.00
2022-10-17T21:51:08.114Z,100.00
2022-10-17T21:53:36.559Z,100.00
2022-10-17T21:56:06.060Z,100.00
2022-10-17T21:58:34.960Z,100.00
2022-10-17T22:01:09.223Z,100.00
2022-10-17T22:03:42.624Z,100.00
2022-10-17T22:09:04.112Z,100.00
2022-10-17T22:11:34.615Z,100.00
2022-10-17T22:14:03.702Z,100.00
2022-10-17T22:16:33.096Z,100.00
2022-10-17T22:19:05.938Z,100.00
2022-10-17T22:21:35.612Z,100.00
2022-10-17T22:24:08.573Z,100.00
2022-10-17T22:26:38.325Z,100.00
2022-10-17T22:29:07.191Z,100.00
2022-10-17T22:31:37.066Z,100.00
2022-10-17T22:34:05.710Z,100.00
2022-10-17T22:36:33.802Z,100.00
2022-10-17T22:39:01.493Z,100.00
2022-10-17T22:41:29.276Z,100.00
2022-10-17T22:43:57.026Z,100.00
2022-10-17T22:46:24.813Z,100.00
2022-10-17T22:48:53.959Z,100.00
2022-10-17T22:51:21.691Z,100.00
2022-10-17T22:53:49.422Z,100.00
2022-10-17T22:56:19.223Z,100.00
2022-10-17T22:58:47.490Z,100.00
2022-10-17T23:01:17.596Z,100.00
2022-10-17T23:03:45.819Z,100.00
2022-10-17T23:06:15.140Z,100.00
2022-10-17T23:08:43.585Z,100.00
2022-10-17T23:11:13.510Z,100.00
2022-10-17T23:13:41.359Z,100.00
2022-10-17T23:16:09.843Z,100.00
2022-10-17T23:18:38.725Z,100.00
2022-10-17T23:21:07.514Z,100.00
2022-10-17T23:23:37.093Z,100.00
2022-10-17T23:26:06.779Z,100.00
2022-10-17T23:28:35.583Z,100.00
2022-10-17T23:31:12.152Z,100.00
2022-10-17T23:33:41.278Z,100.00
2022-10-17T23:36:10.508Z,100.00
2022-10-17T23:38:40.086Z,100.00
2022-10-17T23:41:07.892Z,100.00
2022-10-17T23:43:35.782Z,100.00
2022-10-17T23:46:04.418Z,100.00
2022-10-17T23:48:32.333Z,100.00
2022-10-17T23:51:00.045Z,100.00
2022-10-17T23:53:27.849Z,100.00
2022-10-17T23:55:56.916Z,100.00
2022-10-17T23:58:24.634Z,100.00
